Titusville, New Jersey
Current Conditions -  °F | °C
As of 9:53 PM on Sunday 21 Dec 2014 (Local Time) from KTTN Reporting Station
Overcast Overcast  
Wind Chill:   Ceiling: 2500
Heat Index:   Visibility: 10mi
Dew Point: -5°   Wind: 0mph
Humidity: 69%   Direction: NA
Pressure: 30.33"   Gusts: NA
Location:  40.31°N, 74.88°W
Report Text: KTTN 220253Z AUTO 00000KT 10SM OVC025 00/M05 A3033 RMK AO2 SLP266 T00001050 51000
Loading
Personal Weather Stations






























Interactive Weather Map New forecast layout! Learn more

10-Day Weather Forecast

Advertisements
Track Severe Weather on mobile